Terminal Aerodrome Forecast
Issued by NWS

Home | Current Version | Previous Version | Text Only | Print | Product List | Glossary On
Versions: 1 2 3 4 5 6 7 8 9 10 11 12 13 14 15 16
018
FTUS45 KMSO 271121
TAFSMN
TAF
KSMN 271121Z 2712/2812 18008KT P6SM VCSH SCT050 OVC100
     FM271600 VRB05KT 6SM -SHSN OVC070
     FM280500 VRB02KT P6SM BKN060
      AMD LTD TO CLD VIS AND WIND=

USA.gov is the U.S. government's official web portal to all federal, state and local government web resources and services.